createdAt,value
2019-03-23T00:01:05.945Z,99.90
2019-03-23T00:03:58.547Z,99.90
2019-03-23T00:06:51.057Z,99.90
2019-03-23T00:09:43.310Z,99.90
2019-03-23T00:12:36.361Z,99.90
2019-03-23T00:15:28.527Z,99.90
2019-03-23T00:18:21.120Z,99.90
2019-03-23T00:21:13.775Z,99.90
2019-03-23T00:24:06.413Z,99.90
2019-03-23T00:26:59.282Z,99.90
2019-03-23T00:29:51.811Z,99.90
2019-03-23T00:32:44.323Z,99.90
2019-03-23T00:35:36.430Z,99.90
2019-03-23T00:38:28.879Z,99.90
2019-03-23T00:41:21.091Z,99.90
2019-03-23T00:44:13.943Z,99.90
2019-03-23T00:47:06.575Z,99.90
2019-03-23T00:49:59.052Z,99.90
2019-03-23T00:52:51.206Z,99.90
2019-03-23T00:55:43.299Z,99.90
2019-03-23T00:58:35.387Z,99.90
2019-03-23T01:01:27.483Z,99.90
2019-03-23T01:04:19.881Z,99.90
2019-03-23T01:07:12.746Z,99.90
2019-03-23T01:10:05.917Z,99.90
2019-03-23T01:12:59.297Z,99.90
2019-03-23T01:15:51.524Z,99.90
2019-03-23T01:18:44.202Z,99.90
2019-03-23T01:21:36.410Z,99.90
2019-03-23T01:24:28.863Z,99.90
2019-03-23T01:27:21.090Z,99.90
2019-03-23T01:30:14.619Z,99.90
2019-03-23T01:33:06.882Z,99.90
2019-03-23T01:35:59.349Z,99.90
2019-03-23T01:38:51.744Z,99.90
2019-03-23T01:41:43.892Z,99.90
2019-03-23T01:44:36.118Z,99.90
2019-03-23T01:47:28.607Z,99.90
2019-03-23T01:50:20.721Z,99.90
2019-03-23T01:53:13.110Z,99.90
2019-03-23T01:56:05.410Z,99.90
2019-03-23T01:58:57.570Z,99.90
2019-03-23T02:01:49.995Z,99.90
2019-03-23T02:04:42.454Z,99.90
2019-03-23T02:07:34.926Z,99.90
2019-03-23T02:10:28.222Z,99.90
2019-03-23T02:13:20.345Z,99.90
2019-03-23T02:16:12.820Z,99.90
2019-03-23T02:19:04.980Z,99.90
2019-03-23T02:21:57.211Z,99.90
2019-03-23T02:24:50.186Z,99.90
2019-03-23T02:27:42.594Z,99.90
2019-03-23T02:30:35.021Z,99.90
2019-03-23T02:33:27.520Z,99.90
2019-03-23T02:36:20.054Z,99.90
2019-03-23T02:39:12.219Z,99.90
2019-03-23T02:42:04.654Z,99.90
2019-03-23T02:44:57.024Z,99.90
2019-03-23T02:47:49.214Z,99.90
2019-03-23T02:50:41.463Z,99.90
2019-03-23T02:53:33.699Z,99.90
2019-03-23T02:56:25.875Z,99.90
2019-03-23T02:59:18.006Z,99.90
2019-03-23T03:02:10.829Z,99.90
2019-03-23T03:05:03.146Z,99.90
2019-03-23T03:07:56.409Z,99.90
2019-03-23T03:10:48.739Z,99.90
2019-03-23T03:13:41.768Z,99.90
2019-03-23T03:16:34.395Z,99.90
2019-03-23T03:19:26.656Z,99.90
2019-03-23T03:22:19.592Z,99.90
2019-03-23T03:25:12.476Z,99.90
2019-03-23T03:28:05.653Z,99.90
2019-03-23T03:30:58.160Z,99.90
2019-03-23T03:33:50.743Z,99.90
2019-03-23T03:36:43.031Z,99.90
2019-03-23T03:39:35.484Z,99.90
2019-03-23T03:42:28.421Z,99.90
2019-03-23T03:45:26.501Z,99.90
2019-03-23T03:48:18.788Z,99.90
2019-03-23T03:51:10.899Z,99.90
2019-03-23T03:54:03.035Z,99.90
2019-03-23T03:56:55.393Z,99.90
2019-03-23T03:59:47.824Z,99.90
2019-03-23T04:02:40.928Z,99.90
2019-03-23T04:05:33.060Z,99.90
2019-03-23T04:08:25.417Z,99.90
2019-03-23T04:11:19.639Z,99.90
2019-03-23T04:14:12.237Z,99.90
2019-03-23T04:17:04.871Z,99.90
2019-03-23T04:19:56.984Z,99.90
2019-03-23T04:22:50.576Z,99.90
2019-03-23T04:25:43.009Z,99.90
2019-03-23T04:28:35.842Z,99.90
2019-03-23T04:31:28.104Z,99.90
2019-03-23T04:34:20.531Z,99.90
2019-03-23T04:37:13.487Z,99.90
2019-03-23T04:40:06.868Z,99.90
2019-03-23T04:42:59.004Z,99.90
2019-03-23T04:45:51.709Z,99.90
2019-03-23T04:48:44.119Z,99.90
2019-03-23T04:51:36.858Z,99.90
2019-03-23T04:54:29.344Z,99.90
2019-03-23T04:57:21.717Z,99.90
2019-03-23T05:00:15.254Z,99.90
2019-03-23T05:03:07.348Z,99.90
2019-03-23T05:05:59.867Z,99.90
2019-03-23T05:08:51.958Z,99.90
2019-03-23T05:11:44.992Z,99.90
2019-03-23T05:14:37.395Z,99.90
2019-03-23T05:17:30.655Z,99.90
2019-03-23T05:20:31.709Z,99.90
2019-03-23T05:23:23.859Z,99.90
2019-03-23T05:26:16.229Z,99.90
2019-03-23T05:29:08.518Z,99.90
2019-03-23T05:32:00.602Z,99.90
2019-03-23T05:34:52.851Z,99.90
2019-03-23T05:37:45.292Z,99.90
2019-03-23T05:40:38.334Z,99.90
2019-03-23T05:43:30.587Z,99.90
2019-03-23T05:46:22.919Z,99.90
2019-03-23T05:49:15.275Z,99.90
2019-03-23T05:52:08.063Z,99.90
2019-03-23T05:55:00.381Z,99.90
2019-03-23T05:57:52.758Z,99.90
2019-03-23T06:00:45.017Z,99.90
2019-03-23T06:03:37.299Z,99.90
2019-03-23T06:06:29.506Z,99.90
2019-03-23T06:09:21.906Z,99.90
2019-03-23T06:12:14.160Z,99.90
2019-03-23T06:15:07.501Z,99.90
2019-03-23T06:17:59.735Z,99.90
2019-03-23T06:20:52.082Z,99.90
2019-03-23T06:23:44.627Z,99.90
2019-03-23T06:26:36.724Z,99.90
2019-03-23T06:29:29.831Z,99.90
2019-03-23T06:32:22.329Z,99.90
2019-03-23T06:35:16.339Z,99.90
2019-03-23T06:38:08.907Z,99.90
2019-03-23T06:41:01.436Z,99.90
2019-03-23T06:43:53.476Z,99.90
2019-03-23T06:46:46.331Z,99.90
2019-03-23T06:49:38.695Z,99.90
2019-03-23T06:52:31.236Z,99.90
2019-03-23T06:55:23.539Z,99.90
2019-03-23T06:58:15.892Z,99.90
2019-03-23T07:01:08.232Z,99.90
2019-03-23T07:04:00.741Z,99.90
2019-03-23T07:06:53.049Z,99.90
2019-03-23T07:09:45.260Z,99.90
2019-03-23T07:12:37.746Z,99.90
2019-03-23T07:15:30.120Z,99.90
2019-03-23T07:18:22.356Z,99.90
2019-03-23T07:21:14.844Z,99.90
2019-03-23T07:24:07.376Z,99.90
2019-03-23T07:26:59.891Z,99.90
2019-03-23T07:29:52.099Z,99.90
2019-03-23T07:32:44.265Z,99.90
2019-03-23T07:35:36.428Z,99.90
2019-03-23T07:38:28.594Z,99.90
2019-03-23T07:41:21.168Z,99.90
2019-03-23T07:44:13.313Z,99.90
2019-03-23T07:47:05.488Z,99.90
2019-03-23T07:49:58.136Z,99.90
2019-03-23T07:52:50.332Z,99.90
2019-03-23T07:55:42.912Z,99.90
2019-03-23T07:58:35.840Z,99.90
2019-03-23T08:01:28.419Z,99.90
2019-03-23T08:04:21.325Z,99.90
2019-03-23T08:07:13.915Z,99.90
2019-03-23T08:10:07.117Z,99.90
2019-03-23T08:12:59.389Z,99.90
2019-03-23T08:15:52.050Z,99.90
2019-03-23T08:18:44.916Z,99.90
2019-03-23T08:21:37.581Z,99.90
2019-03-23T08:24:30.449Z,99.90
2019-03-23T08:27:22.690Z,99.90
2019-03-23T08:30:15.511Z,99.90
2019-03-23T08:33:07.966Z,99.90
2019-03-23T08:36:00.235Z,99.90
2019-03-23T08:38:52.895Z,99.90
2019-03-23T08:41:45.269Z,99.90
2019-03-23T08:44:37.718Z,99.90
2019-03-23T08:47:29.888Z,99.90
2019-03-23T08:50:22.455Z,99.90
2019-03-23T08:53:14.625Z,99.90
2019-03-23T08:56:06.853Z,99.90
2019-03-23T08:58:59.263Z,99.90
2019-03-23T09:01:52.079Z,99.90
2019-03-23T09:04:44.494Z,99.90
2019-03-23T09:07:36.882Z,99.90
2019-03-23T09:10:29.088Z,99.90
2019-03-23T09:13:21.237Z,99.90
2019-03-23T09:16:13.820Z,99.90
2019-03-23T09:19:06.238Z,99.90
2019-03-23T09:21:58.628Z,99.90
2019-03-23T09:24:50.787Z,99.90
2019-03-23T09:27:42.988Z,99.90
2019-03-23T09:30:36.093Z,99.90
2019-03-23T09:33:28.844Z,99.90
2019-03-23T09:36:22.836Z,99.90
2019-03-23T09:39:15.106Z,99.90
2019-03-23T09:42:07.297Z,99.90
2019-03-23T09:45:00.360Z,99.90
2019-03-23T09:47:52.495Z,99.90
2019-03-23T09:50:44.910Z,99.90
2019-03-23T09:53:37.289Z,99.90
2019-03-23T09:56:29.649Z,99.90
2019-03-23T09:59:22.036Z,99.90
2019-03-23T10:02:14.227Z,99.90
2019-03-23T10:05:07.008Z,99.90
2019-03-23T10:07:59.522Z,99.90
2019-03-23T10:10:52.141Z,99.90
2019-03-23T10:13:44.324Z,99.90
2019-03-23T10:16:36.597Z,99.90
2019-03-23T10:19:28.969Z,99.90
2019-03-23T10:22:21.217Z,99.90
2019-03-23T10:25:13.608Z,99.90
2019-03-23T10:28:06.001Z,99.90
2019-03-23T10:30:58.541Z,99.90
2019-03-23T10:33:51.053Z,99.90
2019-03-23T10:36:43.439Z,99.90
2019-03-23T10:39:36.024Z,99.90
2019-03-23T10:42:28.313Z,99.90
2019-03-23T10:45:20.913Z,99.90
2019-03-23T10:48:14.325Z,99.90
2019-03-23T10:51:06.754Z,99.90
2019-03-23T10:53:58.939Z,99.90
2019-03-23T10:56:52.081Z,99.90
2019-03-23T10:59:44.201Z,99.90
2019-03-23T11:02:37.250Z,99.90
2019-03-23T11:05:29.312Z,99.90
2019-03-23T11:08:22.028Z,99.90
2019-03-23T11:11:14.415Z,99.90
2019-03-23T11:14:06.713Z,99.90
2019-03-23T11:16:59.028Z,99.90
2019-03-23T11:19:51.498Z,99.90
2019-03-23T11:22:43.744Z,99.90
2019-03-23T11:25:35.889Z,99.90
2019-03-23T11:28:29.006Z,99.90
2019-03-23T11:31:21.117Z,99.90
2019-03-23T11:34:17.800Z,99.90
2019-03-23T11:37:07.713Z,99.90
2019-03-23T11:40:00.339Z,99.90
2019-03-23T11:42:52.931Z,99.90
2019-03-23T11:45:45.555Z,99.90
2019-03-23T11:48:37.942Z,99.30
2019-03-23T11:51:30.530Z,99.90
2019-03-23T11:54:22.864Z,98.70
2019-03-23T11:57:15.298Z,97.60
2019-03-23T12:00:09.377Z,97.50
2019-03-23T12:03:01.884Z,96.90
2019-03-23T12:05:54.482Z,97.40
2019-03-23T12:08:47.393Z,97.00
2019-03-23T12:11:39.562Z,98.10
2019-03-23T12:14:31.974Z,98.50
2019-03-23T12:17:24.377Z,98.50
2019-03-23T12:20:16.949Z,97.30
2019-03-23T12:23:09.378Z,96.50
2019-03-23T12:26:02.272Z,95.40
2019-03-23T12:28:54.433Z,95.80
2019-03-23T12:31:46.964Z,95.00
2019-03-23T12:34:39.229Z,95.90
2019-03-23T12:37:31.470Z,96.90
2019-03-23T12:40:24.005Z,98.20
2019-03-23T12:43:16.876Z,98.10
2019-03-23T12:46:09.239Z,97.70
2019-03-23T12:49:01.516Z,97.60
2019-03-23T12:51:54.914Z,98.00
2019-03-23T12:54:47.218Z,99.40
2019-03-23T12:57:39.961Z,99.90
2019-03-23T13:00:32.332Z,99.90
2019-03-23T13:03:24.503Z,99.90
2019-03-23T13:06:16.841Z,99.90
2019-03-23T13:09:10.420Z,99.90
2019-03-23T13:12:02.582Z,99.90
2019-03-23T13:14:55.432Z,99.90
2019-03-23T13:17:47.989Z,99.90
2019-03-23T13:20:40.162Z,99.90
2019-03-23T13:23:33.228Z,99.90
2019-03-23T13:26:25.397Z,99.90
2019-03-23T13:29:18.284Z,99.90
2019-03-23T13:32:10.762Z,99.90
2019-03-23T13:35:02.913Z,99.90
2019-03-23T13:37:55.049Z,99.90
2019-03-23T13:40:47.489Z,99.90
2019-03-23T13:43:40.124Z,99.90
2019-03-23T13:46:32.244Z,99.90
2019-03-23T13:49:24.715Z,99.90
2019-03-23T13:52:16.917Z,99.90
2019-03-23T13:55:20.651Z,99.90
2019-03-23T13:58:15.043Z,99.90
2019-03-23T14:01:07.510Z,99.90
2019-03-23T14:04:00.480Z,99.90
2019-03-23T14:06:53.053Z,99.90
2019-03-23T14:09:45.365Z,99.90
2019-03-23T14:12:37.825Z,99.90
2019-03-23T14:15:31.403Z,99.90
2019-03-23T14:18:23.975Z,99.90
2019-03-23T14:21:16.691Z,99.90
2019-03-23T14:24:08.811Z,99.90
2019-03-23T14:27:00.996Z,99.90
2019-03-23T14:29:53.728Z,99.90
2019-03-23T14:32:46.207Z,99.90
2019-03-23T14:35:38.838Z,99.90
2019-03-23T14:38:31.047Z,99.90
2019-03-23T14:41:23.380Z,99.90
2019-03-23T14:44:15.803Z,99.90
2019-03-23T14:47:08.165Z,99.90
2019-03-23T14:50:00.439Z,99.90
2019-03-23T14:52:52.571Z,99.90
2019-03-23T14:55:47.167Z,99.90
2019-03-23T14:58:39.650Z,99.90
2019-03-23T15:01:31.819Z,99.90
2019-03-23T15:04:25.424Z,99.90
2019-03-23T15:07:17.717Z,99.90
2019-03-23T15:10:10.540Z,99.90
2019-03-23T15:13:03.632Z,99.90
2019-03-23T15:15:56.152Z,99.90
2019-03-23T15:18:48.458Z,99.90
2019-03-23T15:21:40.874Z,99.90
2019-03-23T15:24:33.320Z,99.90
2019-03-23T15:27:25.826Z,99.90
2019-03-23T15:30:18.717Z,99.90
2019-03-23T15:33:11.233Z,99.90
2019-03-23T15:36:03.661Z,99.90
2019-03-23T15:38:56.277Z,99.90
2019-03-23T15:41:48.784Z,99.90
2019-03-23T15:44:41.072Z,99.90
2019-03-23T15:47:33.418Z,99.90
2019-03-23T15:50:26.060Z,99.90
2019-03-23T15:53:19.725Z,99.90
2019-03-23T15:56:11.873Z,99.90
2019-03-23T15:59:03.984Z,99.90
2019-03-23T16:01:56.160Z,99.90
2019-03-23T16:04:49.059Z,99.90
2019-03-23T16:07:41.836Z,99.90
2019-03-23T16:10:34.299Z,99.90
2019-03-23T16:13:27.183Z,99.90
2019-03-23T16:16:19.575Z,99.90
2019-03-23T16:19:12.130Z,99.90
2019-03-23T16:22:04.402Z,99.90
2019-03-23T16:24:56.693Z,99.90
2019-03-23T16:27:48.952Z,99.90
2019-03-23T16:30:41.102Z,99.90
2019-03-23T16:33:33.683Z,99.90
2019-03-23T16:36:26.172Z,99.90
2019-03-23T16:39:18.573Z,99.90
2019-03-23T16:42:10.808Z,99.90
2019-03-23T16:45:03.763Z,99.90
2019-03-23T16:47:56.208Z,99.90
2019-03-23T16:50:48.961Z,99.90
2019-03-23T16:53:42.159Z,99.90
2019-03-23T16:56:34.225Z,99.90
2019-03-23T16:59:26.391Z,99.90
2019-03-23T17:02:19.240Z,99.90
2019-03-23T17:05:12.033Z,99.90
2019-03-23T17:08:04.460Z,99.90
2019-03-23T17:10:56.735Z,99.90
2019-03-23T17:13:49.975Z,99.90
2019-03-23T17:16:42.187Z,99.90
2019-03-23T17:19:34.733Z,99.90
2019-03-23T17:22:27.293Z,99.90
2019-03-23T17:25:19.975Z,99.90
2019-03-23T17:28:12.386Z,99.90
2019-03-23T17:31:04.731Z,99.90
2019-03-23T17:33:57.052Z,99.90
2019-03-23T17:36:49.511Z,99.90
2019-03-23T17:39:41.709Z,99.90
2019-03-23T17:42:33.855Z,99.90
2019-03-23T17:45:26.055Z,99.90
2019-03-23T17:48:18.335Z,99.90
2019-03-23T17:51:10.741Z,99.90
2019-03-23T17:54:02.913Z,99.90
2019-03-23T17:56:55.220Z,99.90
2019-03-23T17:59:47.342Z,99.90
2019-03-23T18:02:39.653Z,99.90
2019-03-23T18:05:32.207Z,99.90
2019-03-23T18:08:24.622Z,99.90
2019-03-23T18:11:16.990Z,99.90
2019-03-23T18:14:10.162Z,99.90
2019-03-23T18:17:02.775Z,99.90
2019-03-23T18:19:55.202Z,99.90
2019-03-23T18:22:48.407Z,99.90
2019-03-23T18:25:40.870Z,99.90
2019-03-23T18:28:34.127Z,99.90
2019-03-23T18:31:26.447Z,99.90
2019-03-23T18:34:18.985Z,99.90
2019-03-23T18:37:11.435Z,99.90
2019-03-23T18:40:04.007Z,99.90
2019-03-23T18:42:56.564Z,99.90
2019-03-23T18:45:48.808Z,99.90
2019-03-23T18:48:41.083Z,99.90
2019-03-23T18:51:33.196Z,99.90
2019-03-23T18:54:26.050Z,99.90
2019-03-23T18:57:19.060Z,99.90
2019-03-23T19:00:12.718Z,99.90
2019-03-23T19:03:05.143Z,99.90
2019-03-23T19:05:57.618Z,99.90
2019-03-23T19:08:50.034Z,99.90
2019-03-23T19:11:42.491Z,99.90
2019-03-23T19:14:34.549Z,99.90
2019-03-23T19:17:27.175Z,99.90
2019-03-23T19:20:19.333Z,99.90
2019-03-23T19:23:11.517Z,99.90
2019-03-23T19:26:03.754Z,99.90
2019-03-23T19:28:55.833Z,99.90
2019-03-23T19:31:49.163Z,99.90
2019-03-23T19:34:41.874Z,99.90
2019-03-23T19:37:34.786Z,99.90
2019-03-23T19:40:27.354Z,99.90
2019-03-23T19:43:19.931Z,99.90
2019-03-23T19:46:12.422Z,99.90
2019-03-23T19:49:05.650Z,99.90
2019-03-23T19:51:57.833Z,99.90
2019-03-23T19:54:50.839Z,99.90
2019-03-23T19:57:42.917Z,99.90
2019-03-23T20:00:35.338Z,99.90
2019-03-23T20:03:27.838Z,99.90
2019-03-23T20:06:20.218Z,99.90
2019-03-23T20:09:11.766Z,99.90
2019-03-23T20:12:04.153Z,99.90
2019-03-23T20:14:56.526Z,99.90
2019-03-23T20:17:48.801Z,99.90
2019-03-23T20:20:41.402Z,99.90
2019-03-23T20:23:33.982Z,99.90
2019-03-23T20:26:26.130Z,99.90
2019-03-23T20:29:18.412Z,99.90
2019-03-23T20:32:10.787Z,99.90
2019-03-23T20:35:03.234Z,99.90
2019-03-23T20:37:55.711Z,99.90
2019-03-23T20:40:47.827Z,99.90
2019-03-23T20:43:39.952Z,99.90
2019-03-23T20:46:32.660Z,99.90
2019-03-23T20:49:25.782Z,99.90
2019-03-23T20:52:17.991Z,99.90
2019-03-23T20:55:25.724Z,99.90
2019-03-23T20:58:17.906Z,99.90
2019-03-23T21:01:10.341Z,99.90
2019-03-23T21:04:03.629Z,99.90
2019-03-23T21:06:57.104Z,99.90
2019-03-23T21:09:49.653Z,99.90
2019-03-23T21:12:42.268Z,99.90
2019-03-23T21:15:34.655Z,99.90
2019-03-23T21:18:26.874Z,99.90
2019-03-23T21:21:19.328Z,99.90
2019-03-23T21:24:11.750Z,99.90
2019-03-23T21:27:03.871Z,99.90
2019-03-23T21:29:56.370Z,99.90
2019-03-23T21:32:48.759Z,99.90
2019-03-23T21:35:41.153Z,99.90
2019-03-23T21:38:33.530Z,99.90
2019-03-23T21:41:25.601Z,99.90
2019-03-23T21:44:18.116Z,99.90
2019-03-23T21:47:10.313Z,99.90
2019-03-23T21:50:02.662Z,99.90
2019-03-23T21:52:55.038Z,99.90
2019-03-23T21:55:47.071Z,99.90
2019-03-23T21:58:39.254Z,99.90
2019-03-23T22:01:31.550Z,99.90
2019-03-23T22:04:23.627Z,99.90
2019-03-23T22:07:15.762Z,99.90
2019-03-23T22:10:09.826Z,99.90
2019-03-23T22:13:02.194Z,99.90
2019-03-23T22:15:55.859Z,99.90
2019-03-23T22:18:48.435Z,99.90
2019-03-23T22:21:40.669Z,99.90
2019-03-23T22:24:33.782Z,99.90
2019-03-23T22:27:26.186Z,99.90
2019-03-23T22:30:19.111Z,99.90
2019-03-23T22:33:11.256Z,99.90
2019-03-23T22:36:03.733Z,99.90
2019-03-23T22:38:56.160Z,99.90
2019-03-23T22:41:48.370Z,99.90
2019-03-23T22:44:40.821Z,99.90
2019-03-23T22:47:33.196Z,99.90
2019-03-23T22:50:25.814Z,99.90
2019-03-23T22:53:18.824Z,99.90
2019-03-23T22:56:11.050Z,99.90
2019-03-23T22:59:03.883Z,99.90
2019-03-23T23:01:56.758Z,99.90
2019-03-23T23:04:49.012Z,99.90
2019-03-23T23:07:41.135Z,99.90
2019-03-23T23:10:33.563Z,99.90
2019-03-23T23:13:28.010Z,99.90
2019-03-23T23:16:20.201Z,99.90
2019-03-23T23:19:13.234Z,99.90
2019-03-23T23:22:05.783Z,99.90
2019-03-23T23:24:58.244Z,99.90
2019-03-23T23:27:50.642Z,99.90
2019-03-23T23:30:43.023Z,99.90
2019-03-23T23:33:35.218Z,99.90
2019-03-23T23:36:27.590Z,99.90
2019-03-23T23:39:20.074Z,99.90
2019-03-23T23:42:12.932Z,99.90
2019-03-23T23:45:14.864Z,99.90
2019-03-23T23:48:00.779Z,99.90
2019-03-23T23:50:52.947Z,99.90
2019-03-23T23:53:45.037Z,99.90
2019-03-23T23:56:37.876Z,99.90
2019-03-23T23:59:30.002Z,99.90
